sensor_id;sensor_type;location;lat;lon;timestamp;P1;durP1;ratioP1;P2;durP2;ratioP2
15153;SDS011;7677;41.896;25.004;2022-11-14T00:00:36;16.60;;;8.87;;
15153;SDS011;7677;41.896;25.004;2022-11-14T00:03:04;16.40;;;8.33;;
15153;SDS011;7677;41.896;25.004;2022-11-14T00:05:32;15.40;;;8.77;;
15153;SDS011;7677;41.896;25.004;2022-11-14T00:08:01;16.43;;;9.40;;
15153;SDS011;7677;41.896;25.004;2022-11-14T00:10:28;11.63;;;7.37;;
15153;SDS011;7677;41.896;25.004;2022-11-14T00:12:56;15.93;;;8.40;;
15153;SDS011;7677;41.896;25.004;2022-11-14T00:15:24;12.13;;;8.17;;
15153;SDS011;7677;41.896;25.004;2022-11-14T00:17:51;14.73;;;9.13;;
15153;SDS011;7677;41.896;25.004;2022-11-14T00:20:18;14.00;;;8.70;;
15153;SDS011;7677;41.896;25.004;2022-11-14T00:22:45;12.80;;;7.43;;
15153;SDS011;7677;41.896;25.004;2022-11-14T00:25:12;13.67;;;8.50;;
15153;SDS011;7677;41.896;25.004;2022-11-14T00:27:39;16.43;;;8.10;;
15153;SDS011;7677;41.896;25.004;2022-11-14T00:30:09;16.20;;;7.73;;
15153;SDS011;7677;41.896;25.004;2022-11-14T00:32:36;12.33;;;8.07;;
15153;SDS011;7677;41.896;25.004;2022-11-14T00:35:04;12.50;;;7.63;;
15153;SDS011;7677;41.896;25.004;2022-11-14T00:37:31;14.07;;;7.87;;
15153;SDS011;7677;41.896;25.004;2022-11-14T00:39:59;18.57;;;7.43;;
15153;SDS011;7677;41.896;25.004;2022-11-14T00:42:26;13.30;;;8.27;;
15153;SDS011;7677;41.896;25.004;2022-11-14T00:44:53;15.23;;;9.30;;
15153;SDS011;7677;41.896;25.004;2022-11-14T00:47:21;16.77;;;7.60;;
15153;SDS011;7677;41.896;25.004;2022-11-14T00:49:49;14.10;;;7.50;;
15153;SDS011;7677;41.896;25.004;2022-11-14T00:52:16;14.23;;;7.50;;
15153;SDS011;7677;41.896;25.004;2022-11-14T00:54:43;12.23;;;7.10;;
15153;SDS011;7677;41.896;25.004;2022-11-14T00:57:10;13.63;;;7.73;;
15153;SDS011;7677;41.896;25.004;2022-11-14T00:59:37;14.07;;;7.93;;
15153;SDS011;7677;41.896;25.004;2022-11-14T01:02:04;14.50;;;8.67;;
15153;SDS011;7677;41.896;25.004;2022-11-14T01:04:33;13.87;;;7.80;;
15153;SDS011;7677;41.896;25.004;2022-11-14T01:07:00;14.30;;;7.13;;
15153;SDS011;7677;41.896;25.004;2022-11-14T01:09:28;14.27;;;6.53;;
15153;SDS011;7677;41.896;25.004;2022-11-14T01:11:55;13.07;;;7.80;;
15153;SDS011;7677;41.896;25.004;2022-11-14T01:14:22;10.60;;;7.00;;
15153;SDS011;7677;41.896;25.004;2022-11-14T01:16:49;10.87;;;6.93;;
15153;SDS011;7677;41.896;25.004;2022-11-14T01:19:16;16.07;;;8.63;;
15153;SDS011;7677;41.896;25.004;2022-11-14T01:21:45;14.57;;;8.37;;
15153;SDS011;7677;41.896;25.004;2022-11-14T01:24:12;12.07;;;7.77;;
15153;SDS011;7677;41.896;25.004;2022-11-14T01:26:39;18.33;;;8.03;;
15153;SDS011;7677;41.896;25.004;2022-11-14T01:29:06;14.47;;;7.90;;
15153;SDS011;7677;41.896;25.004;2022-11-14T01:31:33;13.70;;;8.67;;
15153;SDS011;7677;41.896;25.004;2022-11-14T01:34:01;9.47;;;6.27;;
15153;SDS011;7677;41.896;25.004;2022-11-14T01:36:28;15.03;;;8.63;;
15153;SDS011;7677;41.896;25.004;2022-11-14T01:38:56;15.20;;;7.70;;
15153;SDS011;7677;41.896;25.004;2022-11-14T01:41:23;14.00;;;8.03;;
15153;SDS011;7677;41.896;25.004;2022-11-14T01:43:51;15.97;;;8.10;;
15153;SDS011;7677;41.896;25.004;2022-11-14T01:46:18;12.10;;;7.70;;
15153;SDS011;7677;41.896;25.004;2022-11-14T01:48:49;13.13;;;7.53;;
15153;SDS011;7677;41.896;25.004;2022-11-14T01:51:18;12.60;;;7.03;;
15153;SDS011;7677;41.896;25.004;2022-11-14T01:53:49;12.70;;;7.33;;
15153;SDS011;7677;41.896;25.004;2022-11-14T01:56:20;13.20;;;7.70;;
15153;SDS011;7677;41.896;25.004;2022-11-14T01:58:51;11.73;;;7.33;;
15153;SDS011;7677;41.896;25.004;2022-11-14T02:01:21;12.33;;;7.60;;
15153;SDS011;7677;41.896;25.004;2022-11-14T02:03:50;11.80;;;7.00;;
15153;SDS011;7677;41.896;25.004;2022-11-14T02:06:19;10.57;;;7.07;;
15153;SDS011;7677;41.896;25.004;2022-11-14T02:08:47;15.33;;;8.13;;
15153;SDS011;7677;41.896;25.004;2022-11-14T02:11:14;14.10;;;8.13;;
15153;SDS011;7677;41.896;25.004;2022-11-14T02:13:43;13.00;;;7.90;;
15153;SDS011;7677;41.896;25.004;2022-11-14T02:16:10;11.97;;;7.47;;
15153;SDS011;7677;41.896;25.004;2022-11-14T02:18:37;12.50;;;7.53;;
15153;SDS011;7677;41.896;25.004;2022-11-14T02:21:06;12.57;;;7.23;;
15153;SDS011;7677;41.896;25.004;2022-11-14T02:23:33;13.67;;;7.83;;
15153;SDS011;7677;41.896;25.004;2022-11-14T02:26:00;11.13;;;7.10;;
15153;SDS011;7677;41.896;25.004;2022-11-14T02:28:27;15.43;;;8.67;;
15153;SDS011;7677;41.896;25.004;2022-11-14T02:30:54;15.20;;;7.93;;
15153;SDS011;7677;41.896;25.004;2022-11-14T02:33:21;13.70;;;7.80;;
15153;SDS011;7677;41.896;25.004;2022-11-14T02:35:49;14.13;;;7.57;;
15153;SDS011;7677;41.896;25.004;2022-11-14T02:38:17;10.93;;;7.07;;
15153;SDS011;7677;41.896;25.004;2022-11-14T02:40:44;13.83;;;8.03;;
15153;SDS011;7677;41.896;25.004;2022-11-14T02:43:11;10.47;;;7.03;;
15153;SDS011;7677;41.896;25.004;2022-11-14T02:45:39;16.80;;;8.33;;
15153;SDS011;7677;41.896;25.004;2022-11-14T02:48:06;13.60;;;7.53;;
15153;SDS011;7677;41.896;25.004;2022-11-14T02:50:33;11.70;;;7.07;;
15153;SDS011;7677;41.896;25.004;2022-11-14T02:53:00;16.73;;;8.67;;
15153;SDS011;7677;41.896;25.004;2022-11-14T02:55:29;15.00;;;7.67;;
15153;SDS011;7677;41.896;25.004;2022-11-14T02:57:56;13.70;;;7.63;;
15153;SDS011;7677;41.896;25.004;2022-11-14T03:00:23;13.20;;;7.40;;
15153;SDS011;7677;41.896;25.004;2022-11-14T03:02:51;11.10;;;7.17;;
15153;SDS011;7677;41.896;25.004;2022-11-14T03:05:18;14.83;;;7.17;;
15153;SDS011;7677;41.896;25.004;2022-11-14T03:07:45;10.17;;;6.83;;
15153;SDS011;7677;41.896;25.004;2022-11-14T03:10:13;16.07;;;7.87;;
15153;SDS011;7677;41.896;25.004;2022-11-14T03:12:41;13.80;;;7.87;;
15153;SDS011;7677;41.896;25.004;2022-11-14T03:15:09;11.03;;;7.20;;
15153;SDS011;7677;41.896;25.004;2022-11-14T03:17:36;12.57;;;6.93;;
15153;SDS011;7677;41.896;25.004;2022-11-14T03:20:04;11.80;;;6.40;;
15153;SDS011;7677;41.896;25.004;2022-11-14T03:22:32;11.63;;;7.37;;
15153;SDS011;7677;41.896;25.004;2022-11-14T03:24:59;15.43;;;6.33;;
15153;SDS011;7677;41.896;25.004;2022-11-14T03:27:27;13.07;;;7.50;;
15153;SDS011;7677;41.896;25.004;2022-11-14T03:29:55;11.60;;;7.90;;
15153;SDS011;7677;41.896;25.004;2022-11-14T03:32:22;11.97;;;7.77;;
15153;SDS011;7677;41.896;25.004;2022-11-14T03:34:49;14.50;;;7.07;;
15153;SDS011;7677;41.896;25.004;2022-11-14T03:37:17;11.83;;;7.10;;
15153;SDS011;7677;41.896;25.004;2022-11-14T03:39:44;13.00;;;6.53;;
15153;SDS011;7677;41.896;25.004;2022-11-14T03:42:11;10.30;;;5.77;;
15153;SDS011;7677;41.896;25.004;2022-11-14T03:44:38;8.97;;;6.33;;
15153;SDS011;7677;41.896;25.004;2022-11-14T03:47:07;12.10;;;7.13;;
15153;SDS011;7677;41.896;25.004;2022-11-14T03:49:34;12.80;;;6.77;;
15153;SDS011;7677;41.896;25.004;2022-11-14T03:52:01;9.53;;;6.33;;
15153;SDS011;7677;41.896;25.004;2022-11-14T03:54:28;9.20;;;6.07;;
15153;SDS011;7677;41.896;25.004;2022-11-14T03:56:56;12.93;;;6.53;;
15153;SDS011;7677;41.896;25.004;2022-11-14T03:59:23;11.87;;;6.27;;
15153;SDS011;7677;41.896;25.004;2022-11-14T04:01:50;12.57;;;6.93;;
15153;SDS011;7677;41.896;25.004;2022-11-14T04:04:19;12.47;;;7.03;;
15153;SDS011;7677;41.896;25.004;2022-11-14T04:06:46;12.97;;;7.10;;
15153;SDS011;7677;41.896;25.004;2022-11-14T04:09:13;14.37;;;7.13;;
15153;SDS011;7677;41.896;25.004;2022-11-14T04:11:40;12.63;;;6.90;;
15153;SDS011;7677;41.896;25.004;2022-11-14T04:14:08;11.63;;;6.90;;
15153;SDS011;7677;41.896;25.004;2022-11-14T04:16:35;8.40;;;5.43;;
15153;SDS011;7677;41.896;25.004;2022-11-14T04:19:02;11.93;;;7.30;;
15153;SDS011;7677;41.896;25.004;2022-11-14T04:21:31;10.20;;;6.47;;
15153;SDS011;7677;41.896;25.004;2022-11-14T04:23:58;11.20;;;6.27;;
15153;SDS011;7677;41.896;25.004;2022-11-14T04:26:25;11.93;;;7.43;;
15153;SDS011;7677;41.896;25.004;2022-11-14T04:28:52;11.20;;;6.23;;
15153;SDS011;7677;41.896;25.004;2022-11-14T04:31:20;10.50;;;6.23;;
15153;SDS011;7677;41.896;25.004;2022-11-14T04:33:47;11.37;;;7.37;;
15153;SDS011;7677;41.896;25.004;2022-11-14T04:36:14;12.77;;;7.53;;
15153;SDS011;7677;41.896;25.004;2022-11-14T04:38:42;17.90;;;7.20;;
15153;SDS011;7677;41.896;25.004;2022-11-14T04:41:10;10.83;;;6.77;;
15153;SDS011;7677;41.896;25.004;2022-11-14T04:43:37;9.40;;;6.70;;
15153;SDS011;7677;41.896;25.004;2022-11-14T04:46:04;12.10;;;6.03;;
15153;SDS011;7677;41.896;25.004;2022-11-14T04:48:31;10.33;;;5.90;;
15153;SDS011;7677;41.896;25.004;2022-11-14T04:50:59;12.43;;;6.60;;
15153;SDS011;7677;41.896;25.004;2022-11-14T04:53:26;12.43;;;7.50;;
15153;SDS011;7677;41.896;25.004;2022-11-14T04:55:54;10.47;;;6.50;;
15153;SDS011;7677;41.896;25.004;2022-11-14T04:58:21;11.40;;;6.23;;
15153;SDS011;7677;41.896;25.004;2022-11-14T05:00:49;8.60;;;5.87;;
15153;SDS011;7677;41.896;25.004;2022-11-14T05:03:16;13.57;;;6.90;;
15153;SDS011;7677;41.896;25.004;2022-11-14T05:05:43;10.87;;;7.20;;
15153;SDS011;7677;41.896;25.004;2022-11-14T05:08:10;12.63;;;6.93;;
15153;SDS011;7677;41.896;25.004;2022-11-14T05:10:41;11.63;;;7.07;;
15153;SDS011;7677;41.896;25.004;2022-11-14T05:13:09;9.87;;;5.63;;
15153;SDS011;7677;41.896;25.004;2022-11-14T05:15:37;10.27;;;6.33;;
15153;SDS011;7677;41.896;25.004;2022-11-14T05:18:04;10.37;;;6.27;;
15153;SDS011;7677;41.896;25.004;2022-11-14T05:20:31;10.37;;;6.30;;
15153;SDS011;7677;41.896;25.004;2022-11-14T05:22:58;8.23;;;6.33;;
15153;SDS011;7677;41.896;25.004;2022-11-14T05:25:26;13.13;;;6.47;;
15153;SDS011;7677;41.896;25.004;2022-11-14T05:27:53;10.13;;;5.57;;
15153;SDS011;7677;41.896;25.004;2022-11-14T05:30:21;9.30;;;5.33;;
15153;SDS011;7677;41.896;25.004;2022-11-14T05:32:50;7.77;;;4.90;;
15153;SDS011;7677;41.896;25.004;2022-11-14T05:35:17;11.17;;;6.60;;
15153;SDS011;7677;41.896;25.004;2022-11-14T05:37:44;9.77;;;6.03;;
15153;SDS011;7677;41.896;25.004;2022-11-14T05:40:11;10.53;;;6.20;;
15153;SDS011;7677;41.896;25.004;2022-11-14T05:42:41;10.97;;;6.57;;
15153;SDS011;7677;41.896;25.004;2022-11-14T05:45:08;9.80;;;6.70;;
15153;SDS011;7677;41.896;25.004;2022-11-14T05:47:37;8.17;;;5.10;;
15153;SDS011;7677;41.896;25.004;2022-11-14T05:50:05;11.67;;;6.87;;
15153;SDS011;7677;41.896;25.004;2022-11-14T05:52:33;12.30;;;6.50;;
15153;SDS011;7677;41.896;25.004;2022-11-14T05:55:00;8.97;;;5.90;;
15153;SDS011;7677;41.896;25.004;2022-11-14T05:57:27;10.67;;;6.17;;
15153;SDS011;7677;41.896;25.004;2022-11-14T05:59:54;15.50;;;5.70;;
15153;SDS011;7677;41.896;25.004;2022-11-14T06:02:22;12.33;;;5.87;;
15153;SDS011;7677;41.896;25.004;2022-11-14T06:04:50;8.53;;;5.63;;
15153;SDS011;7677;41.896;25.004;2022-11-14T06:07:17;11.00;;;5.67;;
15153;SDS011;7677;41.896;25.004;2022-11-14T06:09:45;9.67;;;5.83;;
15153;SDS011;7677;41.896;25.004;2022-11-14T06:12:12;8.13;;;5.43;;
15153;SDS011;7677;41.896;25.004;2022-11-14T06:14:39;8.17;;;5.57;;
15153;SDS011;7677;41.896;25.004;2022-11-14T06:17:06;10.47;;;5.07;;
15153;SDS011;7677;41.896;25.004;2022-11-14T06:19:33;8.50;;;4.87;;
15153;SDS011;7677;41.896;25.004;2022-11-14T06:22:02;8.70;;;5.70;;
15153;SDS011;7677;41.896;25.004;2022-11-14T06:24:29;8.13;;;5.80;;
15153;SDS011;7677;41.896;25.004;2022-11-14T06:26:56;9.93;;;6.50;;
15153;SDS011;7677;41.896;25.004;2022-11-14T06:29:24;12.23;;;6.43;;
15153;SDS011;7677;41.896;25.004;2022-11-14T06:31:51;10.10;;;5.50;;
15153;SDS011;7677;41.896;25.004;2022-11-14T06:34:18;9.43;;;6.00;;
15153;SDS011;7677;41.896;25.004;2022-11-14T06:36:45;8.57;;;5.60;;
15153;SDS011;7677;41.896;25.004;2022-11-14T06:39:14;8.03;;;5.33;;
15153;SDS011;7677;41.896;25.004;2022-11-14T06:41:41;7.83;;;5.60;;
15153;SDS011;7677;41.896;25.004;2022-11-14T06:44:08;12.00;;;6.30;;
15153;SDS011;7677;41.896;25.004;2022-11-14T06:46:35;12.17;;;6.40;;
15153;SDS011;7677;41.896;25.004;2022-11-14T06:49:02;7.33;;;5.23;;
15153;SDS011;7677;41.896;25.004;2022-11-14T06:51:30;9.47;;;5.70;;
15153;SDS011;7677;41.896;25.004;2022-11-14T06:53:57;9.43;;;5.60;;
15153;SDS011;7677;41.896;25.004;2022-11-14T06:56:25;9.77;;;5.97;;
15153;SDS011;7677;41.896;25.004;2022-11-14T06:58:53;10.37;;;6.23;;
15153;SDS011;7677;41.896;25.004;2022-11-14T07:01:21;15.40;;;9.53;;
15153;SDS011;7677;41.896;25.004;2022-11-14T07:03:50;28.87;;;16.03;;
15153;SDS011;7677;41.896;25.004;2022-11-14T07:06:18;27.07;;;17.33;;
15153;SDS011;7677;41.896;25.004;2022-11-14T07:08:46;26.50;;;16.57;;
15153;SDS011;7677;41.896;25.004;2022-11-14T07:11:14;20.67;;;11.90;;
15153;SDS011;7677;41.896;25.004;2022-11-14T07:13:49;19.80;;;10.90;;
15153;SDS011;7677;41.896;25.004;2022-11-14T07:16:16;18.13;;;11.57;;
15153;SDS011;7677;41.896;25.004;2022-11-14T07:18:44;13.33;;;8.20;;
15153;SDS011;7677;41.896;25.004;2022-11-14T07:21:11;15.07;;;9.27;;
15153;SDS011;7677;41.896;25.004;2022-11-14T07:23:38;15.27;;;8.03;;
15153;SDS011;7677;41.896;25.004;2022-11-14T07:26:07;12.53;;;7.43;;
15153;SDS011;7677;41.896;25.004;2022-11-14T07:28:35;17.03;;;8.47;;
15153;SDS011;7677;41.896;25.004;2022-11-14T07:31:06;11.13;;;7.47;;
15153;SDS011;7677;41.896;25.004;2022-11-14T07:33:34;11.03;;;7.70;;
15153;SDS011;7677;41.896;25.004;2022-11-14T07:36:01;14.90;;;7.40;;
15153;SDS011;7677;41.896;25.004;2022-11-14T07:38:29;10.80;;;8.00;;
15153;SDS011;7677;41.896;25.004;2022-11-14T07:40:57;14.43;;;7.93;;
15153;SDS011;7677;41.896;25.004;2022-11-14T07:43:25;11.90;;;7.73;;
15153;SDS011;7677;41.896;25.004;2022-11-14T07:45:52;25.87;;;14.40;;
15153;SDS011;7677;41.896;25.004;2022-11-14T07:48:21;25.77;;;14.00;;
15153;SDS011;7677;41.896;25.004;2022-11-14T07:50:48;19.90;;;12.27;;
15153;SDS011;7677;41.896;25.004;2022-11-14T07:53:15;23.03;;;12.90;;
15153;SDS011;7677;41.896;25.004;2022-11-14T07:55:43;29.80;;;17.73;;
15153;SDS011;7677;41.896;25.004;2022-11-14T07:58:10;27.20;;;15.87;;
15153;SDS011;7677;41.896;25.004;2022-11-14T08:00:37;25.37;;;13.97;;
15153;SDS011;7677;41.896;25.004;2022-11-14T08:03:05;32.03;;;13.97;;
15153;SDS011;7677;41.896;25.004;2022-11-14T08:05:34;22.93;;;12.93;;
15153;SDS011;7677;41.896;25.004;2022-11-14T08:08:01;26.03;;;14.20;;
15153;SDS011;7677;41.896;25.004;2022-11-14T08:10:28;21.63;;;11.53;;
15153;SDS011;7677;41.896;25.004;2022-11-14T08:12:56;18.20;;;10.33;;
15153;SDS011;7677;41.896;25.004;2022-11-14T08:15:24;24.77;;;11.27;;
15153;SDS011;7677;41.896;25.004;2022-11-14T08:17:52;22.03;;;11.97;;
15153;SDS011;7677;41.896;25.004;2022-11-14T08:20:22;24.47;;;11.63;;
15153;SDS011;7677;41.896;25.004;2022-11-14T08:22:51;17.60;;;10.60;;
15153;SDS011;7677;41.896;25.004;2022-11-14T08:25:18;21.03;;;11.27;;
15153;SDS011;7677;41.896;25.004;2022-11-14T08:27:45;22.20;;;10.93;;
15153;SDS011;7677;41.896;25.004;2022-11-14T08:30:12;25.57;;;12.00;;
15153;SDS011;7677;41.896;25.004;2022-11-14T08:32:40;20.47;;;10.83;;
15153;SDS011;7677;41.896;25.004;2022-11-14T08:35:07;20.87;;;10.90;;
15153;SDS011;7677;41.896;25.004;2022-11-14T08:37:34;19.60;;;10.73;;
15153;SDS011;7677;41.896;25.004;2022-11-14T08:40:03;19.53;;;11.30;;
15153;SDS011;7677;41.896;25.004;2022-11-14T08:42:31;24.57;;;11.97;;
15153;SDS011;7677;41.896;25.004;2022-11-14T08:44:58;22.13;;;12.10;;
15153;SDS011;7677;41.896;25.004;2022-11-14T08:47:25;22.60;;;11.90;;
15153;SDS011;7677;41.896;25.004;2022-11-14T08:49:52;24.60;;;13.50;;
15153;SDS011;7677;41.896;25.004;2022-11-14T08:52:19;26.60;;;12.63;;
15153;SDS011;7677;41.896;25.004;2022-11-14T08:54:47;26.37;;;13.33;;
15153;SDS011;7677;41.896;25.004;2022-11-14T08:57:15;38.37;;;17.87;;
15153;SDS011;7677;41.896;25.004;2022-11-14T08:59:42;56.43;;;28.00;;
15153;SDS011;7677;41.896;25.004;2022-11-14T09:02:10;51.53;;;26.10;;
15153;SDS011;7677;41.896;25.004;2022-11-14T09:04:37;34.60;;;18.67;;
15153;SDS011;7677;41.896;25.004;2022-11-14T09:07:05;44.73;;;21.17;;
15153;SDS011;7677;41.896;25.004;2022-11-14T09:09:32;29.63;;;17.67;;
15153;SDS011;7677;41.896;25.004;2022-11-14T09:11:59;26.33;;;13.77;;
15153;SDS011;7677;41.896;25.004;2022-11-14T09:14:28;21.23;;;14.07;;
15153;SDS011;7677;41.896;25.004;2022-11-14T09:16:55;33.03;;;17.17;;
15153;SDS011;7677;41.896;25.004;2022-11-14T09:19:22;25.83;;;14.93;;
15153;SDS011;7677;41.896;25.004;2022-11-14T09:21:49;25.83;;;13.13;;
15153;SDS011;7677;41.896;25.004;2022-11-14T09:24:17;24.27;;;11.50;;
15153;SDS011;7677;41.896;25.004;2022-11-14T09:26:44;20.33;;;11.47;;
15153;SDS011;7677;41.896;25.004;2022-11-14T09:29:13;21.73;;;12.30;;
15153;SDS011;7677;41.896;25.004;2022-11-14T09:31:44;24.97;;;12.53;;
15153;SDS011;7677;41.896;25.004;2022-11-14T09:34:11;18.73;;;11.57;;
15153;SDS011;7677;41.896;25.004;2022-11-14T09:36:39;16.90;;;10.43;;
15153;SDS011;7677;41.896;25.004;2022-11-14T09:39:06;17.37;;;11.33;;
15153;SDS011;7677;41.896;25.004;2022-11-14T09:41:37;20.13;;;11.57;;
15153;SDS011;7677;41.896;25.004;2022-11-14T09:44:13;20.67;;;12.00;;
15153;SDS011;7677;41.896;25.004;2022-11-14T09:46:53;19.73;;;11.13;;
15153;SDS011;7677;41.896;25.004;2022-11-14T09:49:24;19.27;;;12.43;;
15153;SDS011;7677;41.896;25.004;2022-11-14T09:51:57;22.03;;;12.47;;
15153;SDS011;7677;41.896;25.004;2022-11-14T09:54:34;18.10;;;10.20;;
15153;SDS011;7677;41.896;25.004;2022-11-14T09:57:08;18.10;;;11.77;;
15153;SDS011;7677;41.896;25.004;2022-11-14T09:59:40;20.10;;;12.27;;
15153;SDS011;7677;41.896;25.004;2022-11-14T10:02:13;21.63;;;12.93;;
15153;SDS011;7677;41.896;25.004;2022-11-14T10:04:48;17.73;;;10.43;;
15153;SDS011;7677;41.896;25.004;2022-11-14T10:07:24;19.97;;;10.87;;
15153;SDS011;7677;41.896;25.004;2022-11-14T10:09:58;18.30;;;10.77;;
15153;SDS011;7677;41.896;25.004;2022-11-14T10:12:32;19.25;;;13.52;;
15153;SDS011;7677;41.896;25.004;2022-11-14T10:15:07;16.30;;;10.80;;
15153;SDS011;7677;41.896;25.004;2022-11-14T10:17:43;17.00;;;11.20;;
15153;SDS011;7677;41.896;25.004;2022-11-14T10:20:19;17.57;;;11.57;;
15153;SDS011;7677;41.896;25.004;2022-11-14T10:23:04;15.47;;;9.77;;
15153;SDS011;7677;41.896;25.004;2022-11-14T10:25:43;17.17;;;11.07;;
15153;SDS011;7677;41.896;25.004;2022-11-14T10:28:28;17.83;;;10.90;;
15153;SDS011;7677;41.896;25.004;2022-11-14T10:31:19;17.97;;;10.13;;
15153;SDS011;7677;41.896;25.004;2022-11-14T10:33:54;14.47;;;9.43;;
15153;SDS011;7677;41.896;25.004;2022-11-14T10:36:31;16.87;;;10.93;;
15153;SDS011;7677;41.896;25.004;2022-11-14T10:39:12;21.33;;;10.73;;
15153;SDS011;7677;41.896;25.004;2022-11-14T10:41:43;14.00;;;9.40;;
15153;SDS011;7677;41.896;25.004;2022-11-14T10:44:12;18.67;;;11.77;;
15153;SDS011;7677;41.896;25.004;2022-11-14T10:46:44;14.13;;;10.13;;
15153;SDS011;7677;41.896;25.004;2022-11-14T10:49:15;17.23;;;10.77;;
15153;SDS011;7677;41.896;25.004;2022-11-14T10:51:45;20.43;;;10.87;;
15153;SDS011;7677;41.896;25.004;2022-11-14T10:54:16;17.27;;;10.10;;
15153;SDS011;7677;41.896;25.004;2022-11-14T10:56:45;20.67;;;11.30;;
15153;SDS011;7677;41.896;25.004;2022-11-14T10:59:13;17.67;;;11.50;;
15153;SDS011;7677;41.896;25.004;2022-11-14T11:01:41;18.43;;;11.03;;
15153;SDS011;7677;41.896;25.004;2022-11-14T11:04:13;17.27;;;10.43;;
15153;SDS011;7677;41.896;25.004;2022-11-14T11:06:47;13.40;;;9.27;;
15153;SDS011;7677;41.896;25.004;2022-11-14T11:09:16;16.13;;;10.67;;
15153;SDS011;7677;41.896;25.004;2022-11-14T11:12:02;17.27;;;11.23;;
15153;SDS011;7677;41.896;25.004;2022-11-14T11:14:31;15.23;;;10.27;;
15153;SDS011;7677;41.896;25.004;2022-11-14T11:19:51;11.50;;;9.30;;
15153;SDS011;7677;41.896;25.004;2022-11-14T11:22:25;15.90;;;10.47;;
15153;SDS011;7677;41.896;25.004;2022-11-14T11:24:56;15.77;;;10.97;;
15153;SDS011;7677;41.896;25.004;2022-11-14T11:27:24;19.10;;;10.93;;
15153;SDS011;7677;41.896;25.004;2022-11-14T11:30:06;14.73;;;10.20;;
15153;SDS011;7677;41.896;25.004;2022-11-14T11:32:41;17.57;;;10.07;;
15153;SDS011;7677;41.896;25.004;2022-11-14T11:35:10;17.13;;;11.13;;
15153;SDS011;7677;41.896;25.004;2022-11-14T11:37:40;13.77;;;9.87;;
15153;SDS011;7677;41.896;25.004;2022-11-14T11:40:13;17.47;;;10.97;;
15153;SDS011;7677;41.896;25.004;2022-11-14T11:42:44;17.60;;;9.73;;
15153;SDS011;7677;41.896;25.004;2022-11-14T11:45:14;16.47;;;10.10;;
15153;SDS011;7677;41.896;25.004;2022-11-14T11:47:43;16.00;;;10.83;;
15153;SDS011;7677;41.896;25.004;2022-11-14T11:50:16;16.63;;;10.47;;
15153;SDS011;7677;41.896;25.004;2022-11-14T11:52:47;14.93;;;10.23;;
15153;SDS011;7677;41.896;25.004;2022-11-14T11:55:16;17.40;;;11.13;;
15153;SDS011;7677;41.896;25.004;2022-11-14T11:57:46;16.60;;;11.33;;
15153;SDS011;7677;41.896;25.004;2022-11-14T12:00:17;17.03;;;10.47;;
15153;SDS011;7677;41.896;25.004;2022-11-14T12:02:46;15.67;;;10.57;;
15153;SDS011;7677;41.896;25.004;2022-11-14T12:05:16;16.63;;;10.93;;
15153;SDS011;7677;41.896;25.004;2022-11-14T12:07:49;15.73;;;10.17;;
15153;SDS011;7677;41.896;25.004;2022-11-14T12:10:21;29.57;;;14.70;;
15153;SDS011;7677;41.896;25.004;2022-11-14T12:13:04;25.83;;;14.60;;
15153;SDS011;7677;41.896;25.004;2022-11-14T12:15:51;19.00;;;11.90;;
15153;SDS011;7677;41.896;25.004;2022-11-14T12:18:27;16.90;;;10.37;;
15153;SDS011;7677;41.896;25.004;2022-11-14T12:27:21;15.60;;;9.63;;
15153;SDS011;7677;41.896;25.004;2022-11-14T12:30:02;16.07;;;10.47;;
15153;SDS011;7677;41.896;25.004;2022-11-14T12:32:38;18.27;;;11.70;;
15153;SDS011;7677;41.896;25.004;2022-11-14T12:35:09;15.50;;;10.63;;
15153;SDS011;7677;41.896;25.004;2022-11-14T12:37:44;14.50;;;10.63;;
15153;SDS011;7677;41.896;25.004;2022-11-14T12:40:18;15.20;;;10.33;;
15153;SDS011;7677;41.896;25.004;2022-11-14T12:42:49;16.90;;;9.73;;
15153;SDS011;7677;41.896;25.004;2022-11-14T12:48:21;15.47;;;10.33;;
15153;SDS011;7677;41.896;25.004;2022-11-14T12:50:49;17.93;;;10.60;;
15153;SDS011;7677;41.896;25.004;2022-11-14T12:56:19;15.60;;;9.70;;
15153;SDS011;7677;41.896;25.004;2022-11-14T12:59:08;15.20;;;9.60;;
15153;SDS011;7677;41.896;25.004;2022-11-14T13:01:46;16.93;;;10.17;;
15153;SDS011;7677;41.896;25.004;2022-11-14T13:04:23;16.37;;;10.87;;
15153;SDS011;7677;41.896;25.004;2022-11-14T13:07:00;17.83;;;11.20;;
15153;SDS011;7677;41.896;25.004;2022-11-14T13:09:42;15.03;;;9.40;;
15153;SDS011;7677;41.896;25.004;2022-11-14T13:12:27;13.97;;;9.37;;
15153;SDS011;7677;41.896;25.004;2022-11-14T13:18:20;16.30;;;10.43;;
15153;SDS011;7677;41.896;25.004;2022-11-14T13:24:03;14.10;;;10.07;;
15153;SDS011;7677;41.896;25.004;2022-11-14T13:26:39;14.70;;;10.17;;
15153;SDS011;7677;41.896;25.004;2022-11-14T13:35:20;13.30;;;9.10;;
15153;SDS011;7677;41.896;25.004;2022-11-14T13:37:55;18.30;;;11.37;;
15153;SDS011;7677;41.896;25.004;2022-11-14T13:40:35;18.57;;;11.60;;
15153;SDS011;7677;41.896;25.004;2022-11-14T13:43:09;16.80;;;11.00;;
15153;SDS011;7677;41.896;25.004;2022-11-14T13:45:47;14.83;;;10.67;;
15153;SDS011;7677;41.896;25.004;2022-11-14T13:48:45;16.70;;;10.20;;
15153;SDS011;7677;41.896;25.004;2022-11-14T13:51:18;13.17;;;9.17;;
15153;SDS011;7677;41.896;25.004;2022-11-14T13:53:46;14.47;;;10.13;;
15153;SDS011;7677;41.896;25.004;2022-11-14T13:56:18;14.90;;;9.70;;
15153;SDS011;7677;41.896;25.004;2022-11-14T14:01:54;14.37;;;9.87;;
15153;SDS011;7677;41.896;25.004;2022-11-14T14:04:43;13.60;;;9.40;;
15153;SDS011;7677;41.896;25.004;2022-11-14T14:07:17;13.97;;;9.00;;
15153;SDS011;7677;41.896;25.004;2022-11-14T14:09:52;13.97;;;8.33;;
15153;SDS011;7677;41.896;25.004;2022-11-14T14:12:37;13.83;;;9.03;;
15153;SDS011;7677;41.896;25.004;2022-11-14T14:15:18;17.57;;;9.80;;
15153;SDS011;7677;41.896;25.004;2022-11-14T14:17:49;13.57;;;9.10;;
15153;SDS011;7677;41.896;25.004;2022-11-14T14:20:27;17.60;;;9.90;;
15153;SDS011;7677;41.896;25.004;2022-11-14T14:23:00;12.73;;;9.07;;
15153;SDS011;7677;41.896;25.004;2022-11-14T14:25:34;14.07;;;9.57;;
15153;SDS011;7677;41.896;25.004;2022-11-14T14:28:08;14.00;;;8.67;;
15153;SDS011;7677;41.896;25.004;2022-11-14T14:30:41;13.20;;;8.70;;
15153;SDS011;7677;41.896;25.004;2022-11-14T14:33:26;15.67;;;9.93;;
15153;SDS011;7677;41.896;25.004;2022-11-14T14:35:55;13.17;;;9.23;;
15153;SDS011;7677;41.896;25.004;2022-11-14T14:38:23;13.37;;;9.27;;
15153;SDS011;7677;41.896;25.004;2022-11-14T14:40:52;13.07;;;8.87;;
15153;SDS011;7677;41.896;25.004;2022-11-14T14:43:22;15.27;;;10.20;;
15153;SDS011;7677;41.896;25.004;2022-11-14T14:45:53;14.50;;;8.77;;
15153;SDS011;7677;41.896;25.004;2022-11-14T14:48:21;15.33;;;9.10;;
15153;SDS011;7677;41.896;25.004;2022-11-14T14:50:51;14.07;;;9.33;;
15153;SDS011;7677;41.896;25.004;2022-11-14T14:53:19;15.27;;;9.27;;
15153;SDS011;7677;41.896;25.004;2022-11-14T14:55:51;16.23;;;9.87;;
15153;SDS011;7677;41.896;25.004;2022-11-14T14:58:23;14.57;;;9.90;;
15153;SDS011;7677;41.896;25.004;2022-11-14T15:00:54;15.83;;;9.13;;
15153;SDS011;7677;41.896;25.004;2022-11-14T15:03:23;13.20;;;8.57;;
15153;SDS011;7677;41.896;25.004;2022-11-14T15:05:56;18.20;;;9.50;;
15153;SDS011;7677;41.896;25.004;2022-11-14T15:08:24;15.73;;;9.57;;
15153;SDS011;7677;41.896;25.004;2022-11-14T15:10:52;16.57;;;9.83;;
15153;SDS011;7677;41.896;25.004;2022-11-14T15:13:21;16.13;;;10.33;;
15153;SDS011;7677;41.896;25.004;2022-11-14T15:15:49;17.33;;;9.33;;